Time;durP1;ratioP1;P1;durP2;ratioP2;P2;SDS_P1;SDS_P2;PMS_P1;PMS_P2;Temp;Humidity;BMP_temperature;BMP_pressure;BME280_temperature;BME280_humidity;BME280_pressure;Samples;Min_cycle;Max_cycle;Signal;HPM_P1;HPM_P2
2023/06/01 00:01:32;;;;;;;;;10.00;7.00;;;;;21.65;43.85;101481.00;5038766;28;45404;-52
2023/06/01 00:03:58;;;;;;;;;6.25;6.25;;;;;21.66;43.67;101477.28;5038755;28;45199;-50
2023/06/01 00:06:25;;;;;;;;;8.25;8.00;;;;;21.66;43.99;101484.56;5038222;28;46848;-50
2023/06/01 00:08:51;;;;;;;;;9.50;5.50;;;;;21.62;44.44;101483.28;5038298;28;45291;-51
2023/06/01 00:11:16;;;;;;;;;9.00;6.50;;;;;21.57;44.47;101470.34;5038659;28;45410;-48
2023/06/01 00:13:41;;;;;;;;;9.00;6.75;;;;;21.59;44.34;101478.28;5038707;28;45457;-50
2023/06/01 00:16:07;;;;;;;;;8.00;8.00;;;;;21.47;44.44;101458.22;5037459;28;46101;-51
2023/06/01 00:18:32;;;;;;;;;8.25;6.50;;;;;21.41;44.31;101446.34;5037994;28;45361;-49
2023/06/01 00:21:00;;;;;;;;;11.00;8.00;;;;;21.51;45.01;101467.63;5037204;28;45381;-45
2023/06/01 00:23:25;;;;;;;;;9.75;7.75;;;;;21.46;44.81;101465.50;5038336;28;45282;-51
2023/06/01 00:25:51;;;;;;;;;7.00;5.00;;;;;21.43;44.88;101463.19;5038188;28;46989;-47
2023/06/01 00:28:16;;;;;;;;;10.50;6.50;;;;;21.42;45.29;101469.66;5037692;28;45489;-46
2023/06/01 00:30:41;;;;;;;;;6.00;6.00;;;;;21.40;45.00;101471.72;5037864;28;45276;-49
2023/06/01 00:33:07;;;;;;;;;9.25;8.75;;;;;21.28;45.60;101454.34;5038255;28;45379;-47
2023/06/01 00:35:32;;;;;;;;;12.25;8.00;;;;;21.33;45.79;101469.00;5037638;28;47165;-46
2023/06/01 00:37:57;;;;;;;;;7.00;7.00;;;;;21.30;45.41;101460.41;5038075;28;45266;-49
2023/06/01 00:40:23;;;;;;;;;10.00;8.50;;;;;21.24;45.57;101458.47;5037997;28;45362;-47
2023/06/01 00:42:48;;;;;;;;;7.00;5.25;;;;;21.23;46.14;101473.03;5038093;28;45566;-46
2023/06/01 00:45:13;;;;;;;;;8.75;6.75;;;;;21.15;45.76;101460.50;5037591;28;45464;-45
2023/06/01 00:47:42;;;;;;;;;10.00;7.75;;;;;21.15;46.19;101466.78;5037627;28;45361;-48
2023/06/01 00:50:09;;;;;;;;;12.25;9.00;;;;;21.13;46.25;101465.28;5037653;28;45373;-48
2023/06/01 00:52:36;;;;;;;;;16.00;12.00;;;;;21.09;46.56;101467.56;5037765;28;45426;-47
2023/06/01 00:55:01;;;;;;;;;8.50;8.25;;;;;21.05;47.17;101466.28;5037692;28;46175;-50
2023/06/01 00:57:28;;;;;;;;;15.50;12.50;;;;;20.98;47.45;101451.88;5037244;28;45398;-51
2023/06/01 00:59:54;;;;;;;;;14.25;8.00;;;;;20.99;47.41;101458.13;5037694;28;45429;-46
2023/06/01 01:02:21;;;;;;;;;9.50;8.75;;;;;20.93;48.28;101468.69;5037666;28;45345;-49
2023/06/01 01:04:52;;;;;;;;;12.00;10.00;;;;;20.88;47.93;101470.31;5037069;28;47036;-46
2023/06/01 01:07:35;;;;;;;;;14.00;10.50;;;;;20.87;48.28;101465.97;5036313;28;45415;-47
2023/06/01 01:10:07;;;;;;;;;10.50;8.50;;;;;20.85;48.46;101463.44;5037359;28;45439;-47
2023/06/01 01:12:42;;;;;;;;;10.00;10.00;;;;;20.82;48.36;101474.66;5037632;28;45680;-47
2023/06/01 01:15:17;;;;;;;;;13.50;10.25;;;;;20.79;48.64;101475.03;5037022;28;46883;-46
2023/06/01 01:17:45;;;;;;;;;13.25;9.50;;;;;20.69;49.12;101455.63;5037029;28;45323;-51
2023/06/01 01:20:33;;;;;;;;;10.00;9.00;;;;;20.75;49.03;101478.34;5037209;28;45385;-47
2023/06/01 01:23:25;;;;;;;;;12.00;8.75;;;;;20.72;48.86;101479.56;5037198;28;45388;-48
2023/06/01 01:25:53;;;;;;;;;12.50;10.00;;;;;20.71;49.49;101472.47;5019024;28;46221;-48
2023/06/01 01:28:48;;;;;;;;;15.00;10.50;;;;;20.70;49.37;101476.22;5035651;28;45229;-47
2023/06/01 01:31:17;;;;;;;;;9.00;8.25;;;;;20.68;49.75;101479.09;5036594;28;45402;-55
2023/06/01 01:33:45;;;;;;;;;11.00;9.25;;;;;20.66;50.22;101475.78;5036811;28;45445;-50
2023/06/01 01:36:11;;;;;;;;;14.75;10.00;;;;;20.64;50.65;101477.00;5036344;28;45345;-50
2023/06/01 01:38:37;;;;;;;;;10.50;8.75;;;;;20.62;50.85;101477.19;5036531;28;45403;-46
2023/06/01 01:41:03;;;;;;;;;11.50;9.25;;;;;20.61;50.54;101489.06;5002451;28;45413;-54
2023/06/01 01:43:29;;;;;;;;;10.25;10.25;;;;;20.54;51.12;101482.75;5037447;28;45362;-48
2023/06/01 01:46:06;;;;;;;;;13.50;11.25;;;;;20.54;51.04;101485.44;5036606;28;45397;-48
2023/06/01 01:48:37;;;;;;;;;13.75;10.75;;;;;20.54;51.19;101490.84;5036685;28;45584;-47
2023/06/01 01:51:10;;;;;;;;;13.75;11.00;;;;;20.49;50.91;101482.50;5036944;28;45353;-49
2023/06/01 01:53:38;;;;;;;;;12.25;12.25;;;;;20.48;51.92;101479.94;5037008;28;45359;-45
2023/06/01 01:56:06;;;;;;;;;16.00;12.00;;;;;20.37;51.68;101465.91;5036392;28;46091;-51
2023/06/01 01:58:32;;;;;;;;;17.00;11.00;;;;;20.41;52.00;101475.31;5036629;28;45512;-47
2023/06/01 02:00:58;;;;;;;;;14.00;11.00;;;;;20.26;52.43;101462.88;5036366;28;45438;-47
2023/06/01 02:03:23;;;;;;;;;13.00;12.00;;;;;20.35;52.37;101470.69;5036769;28;45420;-47
2023/06/01 02:05:49;;;;;;;;;15.00;12.25;;;;;20.33;52.31;101477.31;5036002;28;49190;-45
2023/06/01 02:08:14;;;;;;;;;13.25;12.00;;;;;20.32;52.76;101476.47;5036164;28;45396;-47
2023/06/01 02:10:40;;;;;;;;;15.00;15.00;;;;;20.31;53.03;101479.34;5036510;28;45345;-45
2023/06/01 02:13:06;;;;;;;;;16.50;11.25;;;;;20.28;52.68;101477.06;5036445;28;45481;-44
2023/06/01 02:15:31;;;;;;;;;13.25;10.25;;;;;20.25;52.58;101469.34;5018417;28;47170;-45
2023/06/01 02:17:58;;;;;;;;;17.25;12.50;;;;;20.31;53.34;101471.25;5036077;28;45326;-50
2023/06/01 02:20:24;;;;;;;;;13.50;12.75;;;;;20.25;52.86;101463.94;5036262;28;45204;-44
2023/06/01 02:22:50;;;;;;;;;16.75;13.25;;;;;20.26;53.20;101476.41;5036368;28;45373;-45
2023/06/01 02:25:15;;;;;;;;;19.67;16.00;;;;;20.21;53.15;101466.19;5036081;28;45355;-45
2023/06/01 02:27:40;;;;;;;;;19.25;14.75;;;;;20.19;53.37;101460.16;5035383;28;45431;-46
2023/06/01 02:30:07;;;;;;;;;19.33;16.33;;;;;20.16;53.38;101466.75;5035798;28;45520;-46
2023/06/01 02:32:33;;;;;;;;;15.75;15.25;;;;;20.14;53.76;101468.81;5036205;28;45404;-46
2023/06/01 02:34:58;;;;;;;;;19.67;14.33;;;;;20.13;53.68;101466.31;5035708;28;46381;-48
2023/06/01 02:37:24;;;;;;;;;17.25;16.00;;;;;20.07;53.75;101462.50;5035932;28;45478;-47
2023/06/01 02:39:50;;;;;;;;;21.33;17.00;;;;;20.06;53.98;101474.34;5035467;28;45401;-45
2023/06/01 02:42:15;;;;;;;;;23.00;17.67;;;;;20.05;54.11;101483.44;5036024;28;45425;-46
2023/06/01 02:44:40;;;;;;;;;21.00;14.67;;;;;19.97;54.09;101470.06;5034748;28;45370;-46
2023/06/01 02:47:06;;;;;;;;;23.00;18.00;;;;;19.99;54.52;101476.13;5035581;28;45432;-46
2023/06/01 02:49:32;;;;;;;;;21.33;19.00;;;;;19.93;54.65;101476.88;5035994;28;45329;-49
2023/06/01 02:51:57;;;;;;;;;22.33;17.33;;;;;19.89;54.53;101473.75;5035748;28;45405;-49
2023/06/01 02:54:22;;;;;;;;;21.67;17.00;;;;;19.83;54.65;101466.38;5035845;28;46230;-44
2023/06/01 02:56:48;;;;;;;;;18.00;18.00;;;;;19.85;54.75;101464.34;5035518;28;45413;-47
2023/06/01 02:59:13;;;;;;;;;19.67;18.33;;;;;19.81;54.83;101470.31;5035789;28;45310;-45
2023/06/01 03:01:39;;;;;;;;;24.00;20.67;;;;;19.65;54.73;101444.38;5035850;28;45290;-44
2023/06/01 03:04:04;;;;;;;;;25.67;19.67;;;;;19.72;55.16;101458.81;5035461;28;47221;-48
2023/06/01 03:06:31;;;;;;;;;26.67;19.00;;;;;19.72;55.14;101474.13;5035614;28;45215;-49
2023/06/01 03:08:58;;;;;;;;;19.00;17.33;;;;;19.62;55.36;101460.94;5035464;28;45184;-45
2023/06/01 03:11:23;;;;;;;;;24.33;20.00;;;;;19.67;55.51;101474.69;5035901;28;45351;-48
2023/06/01 03:13:49;;;;;;;;;22.33;19.00;;;;;19.63;55.47;101474.25;5035282;28;45338;-51
2023/06/01 03:16:16;;;;;;;;;21.67;17.00;;;;;19.60;55.47;101471.06;5035427;28;45469;-50
2023/06/01 03:18:41;;;;;;;;;24.33;19.33;;;;;19.58;55.70;101468.53;5035412;28;45435;-50
2023/06/01 03:21:07;;;;;;;;;22.33;20.00;;;;;19.53;56.14;101462.88;5035378;28;45423;-47
2023/06/01 03:23:32;;;;;;;;;27.67;22.00;;;;;19.50;55.80;101465.94;5035245;28;46099;-47
2023/06/01 03:25:57;;;;;;;;;30.67;19.00;;;;;19.45;56.21;101463.81;5035259;28;45397;-46
2023/06/01 03:28:23;;;;;;;;;25.33;22.33;;;;;19.45;55.99;101469.22;5035466;28;45880;-50
2023/06/01 03:30:48;;;;;;;;;30.33;22.00;;;;;19.41;56.34;101476.00;5035420;28;45621;-46
2023/06/01 03:33:13;;;;;;;;;24.67;21.00;;;;;19.38;56.40;101472.84;5035040;28;47404;-48
2023/06/01 03:35:40;;;;;;;;;24.00;18.33;;;;;19.37;56.27;101477.41;5016452;28;45394;-46
2023/06/01 03:38:05;;;;;;;;;22.00;22.00;;;;;19.36;56.67;101477.59;5034927;28;45663;-50
2023/06/01 03:40:31;;;;;;;;;24.67;22.67;;;;;19.33;56.60;101470.69;5035257;28;45425;-47
2023/06/01 03:42:56;;;;;;;;;32.33;23.00;;;;;19.21;56.25;101453.31;5017050;28;46202;-49
2023/06/01 03:45:21;;;;;;;;;22.00;20.67;;;;;19.27;56.82;101470.63;5035222;28;45383;-46
2023/06/01 03:47:47;;;;;;;;;20.00;19.67;;;;;19.25;56.84;101475.34;5035177;28;45346;-47
2023/06/01 03:50:12;;;;;;;;;28.67;26.67;;;;;19.24;56.95;101471.81;5035379;28;45302;-49
2023/06/01 03:52:38;;;;;;;;;27.33;23.67;;;;;19.24;56.85;101471.00;5037549;28;46146;-51
2023/06/01 03:55:10;;;;;;;;;25.67;20.33;;;;;19.20;55.85;101471.34;5038440;28;45408;-49
2023/06/01 03:57:36;;;;;;;;;27.33;20.33;;;;;19.19;57.19;101482.34;5038354;28;45305;-51
2023/06/01 04:00:06;;;;;;;;;28.00;20.00;;;;;19.17;57.22;101487.06;5038767;28;45157;-49
2023/06/01 04:02:32;;;;;;;;;27.00;24.33;;;;;19.15;57.29;101483.72;5038318;28;46690;-48
2023/06/01 04:04:57;;;;;;;;;28.00;22.67;;;;;19.15;57.15;101483.72;5038252;28;45501;-47
2023/06/01 04:07:23;;;;;;;;;28.00;22.67;;;;;19.13;57.36;101489.31;5038647;28;45380;-47
2023/06/01 04:09:48;;;;;;;;;29.00;22.00;;;;;19.13;57.18;101491.16;5038904;28;45430;-49
2023/06/01 04:12:14;;;;;;;;;27.67;23.67;;;;;19.00;57.28;101469.38;5038404;28;46879;-46
2023/06/01 04:14:40;;;;;;;;;26.00;23.33;;;;;19.08;57.53;101488.19;5038504;28;45398;-48
2023/06/01 04:17:06;;;;;;;;;32.33;24.33;;;;;19.06;57.59;101493.75;5038048;28;45454;-46
2023/06/01 04:19:33;;;;;;;;;28.67;25.00;;;;;19.02;57.49;101492.47;5038319;28;45514;-46
2023/06/01 04:21:59;;;;;;;;;24.33;21.33;;;;;18.91;57.85;101474.84;5037775;28;46243;-48
2023/06/01 04:24:24;;;;;;;;;26.00;24.67;;;;;18.95;58.04;101491.50;5037940;28;45452;-50
2023/06/01 04:26:50;;;;;;;;;27.33;25.33;;;;;18.91;58.11;101488.34;5038075;28;45978;-47
2023/06/01 04:29:16;;;;;;;;;27.00;24.00;;;;;18.92;57.92;101486.50;5038008;28;45378;-48
2023/06/01 04:31:41;;;;;;;;;29.00;26.00;;;;;18.82;58.05;101484.06;5037631;28;47323;-46
2023/06/01 04:34:06;;;;;;;;;24.33;22.00;;;;;18.89;58.06;101500.34;5037718;28;45568;-51
2023/06/01 04:36:38;;;;;;;;;26.33;23.67;;;;;18.88;58.49;101498.69;5038022;28;45436;-46
2023/06/01 04:39:06;;;;;;;;;31.33;23.67;;;;;18.82;58.53;101497.53;5037946;28;45515;-49
2023/06/01 04:41:32;;;;;;;;;39.33;28.33;;;;;18.84;58.23;101498.19;5037556;28;45819;-49
2023/06/01 04:43:58;;;;;;;;;31.33;25.00;;;;;18.83;58.38;101496.50;5037586;28;45364;-51
2023/06/01 04:46:25;;;;;;;;;31.33;27.00;;;;;18.83;58.52;101507.28;5037995;28;45395;-48
2023/06/01 04:48:52;;;;;;;;;32.67;28.67;;;;;18.83;58.45;101507.28;5037964;28;45538;-46
2023/06/01 04:51:21;;;;;;;;;31.33;25.67;;;;;18.82;58.53;101505.63;5037385;28;45727;-47
2023/06/01 04:53:49;;;;;;;;;28.00;24.67;;;;;18.83;58.71;101509.97;5037364;28;45373;-48
2023/06/01 04:56:16;;;;;;;;;36.00;24.67;;;;;18.84;58.56;101521.63;5037458;28;45898;-46
2023/06/01 04:58:41;;;;;;;;;27.67;22.67;;;;;18.85;58.55;101507.94;5037639;28;45391;-48
2023/06/01 05:01:06;;;;;;;;;35.67;31.00;;;;;18.84;58.44;101519.75;5037215;28;46329;-47
2023/06/01 05:03:31;;;;;;;;;30.33;25.33;;;;;18.84;58.75;101519.75;5037093;28;45211;-49
2023/06/01 05:05:57;;;;;;;;;27.67;24.67;;;;;18.82;58.67;101511.00;5037521;28;45282;-48
2023/06/01 05:08:23;;;;;;;;;28.00;25.00;;;;;18.85;58.69;101516.03;5036776;28;45334;-49
2023/06/01 05:10:48;;;;;;;;;35.00;28.67;;;;;18.87;58.82;101513.97;5037068;28;47091;-45
2023/06/01 05:13:14;;;;;;;;;34.33;29.67;;;;;18.87;58.25;101513.16;5037318;28;45259;-47
2023/06/01 05:15:39;;;;;;;;;29.00;24.33;;;;;18.85;58.22;101513.34;5037492;28;45338;-45
2023/06/01 05:18:05;;;;;;;;;37.33;28.33;;;;;18.84;58.50;101513.53;5037355;28;45404;-45
2023/06/01 05:20:30;;;;;;;;;40.00;28.67;;;;;18.83;58.78;101518.06;5019204;28;46319;-45
2023/06/01 05:22:55;;;;;;;;;33.67;27.00;;;;;18.82;58.86;101511.00;5037184;28;45403;-44
2023/06/01 05:25:21;;;;;;;;;33.33;28.67;;;;;18.82;58.79;101512.88;5036237;28;45689;-48
2023/06/01 05:27:46;;;;;;;;;35.00;30.67;;;;;18.84;58.68;101514.38;5037392;28;45369;-47
2023/06/01 05:30:12;;;;;;;;;36.00;28.67;;;;;18.84;58.76;101525.16;5036531;28;45389;-47
2023/06/01 05:32:37;;;;;;;;;34.00;28.67;;;;;18.71;58.45;101500.69;5036863;28;45428;-47
2023/06/01 05:35:04;;;;;;;;;28.00;26.67;;;;;18.87;58.71;101530.16;5035660;28;45408;-46
2023/06/01 05:37:29;;;;;;;;;30.33;28.00;;;;;18.87;58.97;101526.63;5037133;28;45429;-46
2023/06/01 05:39:55;;;;;;;;;38.67;31.00;;;;;18.90;58.78;101520.88;5036772;28;46115;-47
2023/06/01 05:42:20;;;;;;;;;40.00;31.33;;;;;18.94;58.76;101524.88;5036723;28;45208;-45
2023/06/01 05:44:45;;;;;;;;;34.00;28.00;;;;;18.90;58.65;101521.72;5036937;28;45159;-45
2023/06/01 05:47:11;;;;;;;;;29.00;26.33;;;;;18.96;58.49;101533.63;5036832;28;45271;-47
2023/06/01 05:49:36;;;;;;;;;36.00;26.00;;;;;18.99;58.56;101529.72;5036413;28;47055;-47
2023/06/01 05:52:01;;;;;;;;;35.00;27.67;;;;;19.02;58.49;101535.59;5036563;28;45360;-43
2023/06/01 05:54:27;;;;;;;;;31.67;25.67;;;;;19.05;58.55;101543.34;5036577;28;45360;-46
2023/06/01 05:56:52;;;;;;;;;31.33;25.00;;;;;19.08;58.60;101537.56;5036873;28;45248;-47
2023/06/01 05:59:18;;;;;;;;;30.67;24.00;;;;;19.13;58.37;101529.78;5036294;28;46096;-45
2023/06/01 06:01:44;;;;;;;;;34.00;27.67;;;;;19.15;57.98;101530.41;5036413;28;45719;-45
2023/06/01 06:04:10;;;;;;;;;34.33;27.67;;;;;19.06;58.07;101509.13;5018630;28;45368;-45
2023/06/01 06:06:36;;;;;;;;;36.33;30.00;;;;;19.23;58.34;101532.19;5036702;28;45452;-46
2023/06/01 06:09:02;;;;;;;;;31.00;25.33;;;;;19.26;58.30;101539.09;5036051;28;46867;-47
2023/06/01 06:11:27;;;;;;;;;34.67;28.00;;;;;19.31;57.77;101536.66;5035800;28;45557;-46
2023/06/01 06:13:53;;;;;;;;;40.67;30.00;;;;;19.39;57.72;101533.88;5036041;28;45401;-45
2023/06/01 06:16:18;;;;;;;;;33.00;24.67;;;;;19.44;57.53;101532.31;5036668;28;45428;-48
2023/06/01 06:18:43;;;;;;;;;31.33;25.67;;;;;19.49;57.36;101534.44;5035679;28;45458;-48
2023/06/01 06:21:09;;;;;;;;;30.33;25.33;;;;;19.53;57.41;101524.94;5036183;28;45552;-47
2023/06/01 06:23:34;;;;;;;;;29.67;24.67;;;;;19.59;57.16;101531.44;5036220;28;45336;-44
2023/06/01 06:25:59;;;;;;;;;34.00;26.33;;;;;19.67;57.26;101534.91;5036428;28;45485;-49
2023/06/01 06:28:26;;;;;;;;;35.33;29.67;;;;;19.75;56.76;101530.47;5036490;28;45377;-49
2023/06/01 06:30:51;;;;;;;;;33.00;29.00;;;;;19.80;57.03;101544.22;5036385;28;45267;-46
2023/06/01 06:33:17;;;;;;;;;40.33;35.00;;;;;19.86;56.40;101524.59;5036164;28;45287;-44
2023/06/01 06:35:42;;;;;;;;;32.67;29.33;;;;;20.15;55.77;101529.09;5036503;28;45423;-46
2023/06/01 06:38:08;;;;;;;;;36.67;32.00;;;;;20.96;54.27;101510.75;5035250;28;45349;-46
2023/06/01 06:40:33;;;;;;;;;36.67;29.67;;;;;22.67;51.34;101520.69;5036046;28;45463;-46
2023/06/01 06:42:58;;;;;;;;;32.33;26.00;;;;;23.98;47.42;101524.47;5036185;28;45330;-46
2023/06/01 06:45:24;;;;;;;;;34.67;26.67;;;;;24.66;46.23;101511.09;5036101;28;45321;-48
2023/06/01 06:47:49;;;;;;;;;31.33;25.00;;;;;25.52;44.22;101512.16;5035805;28;45417;-48
2023/06/01 06:50:15;;;;;;;;;27.67;23.67;;;;;26.65;42.08;101513.41;5017816;28;45322;-49
2023/06/01 06:52:41;;;;;;;;;32.50;25.50;;;;;27.64;39.79;101513.50;5036335;28;45917;-48
2023/06/01 06:55:06;;;;;;;;;37.50;28.25;;;;;28.42;38.08;101510.16;5035522;28;45259;-45
2023/06/01 06:57:33;;;;;;;;;30.75;26.75;;;;;29.03;37.73;101494.75;5035787;28;46282;-45
2023/06/01 06:59:59;;;;;;;;;26.00;22.25;;;;;29.73;35.63;101509.66;5035429;28;45460;-45
2023/06/01 07:02:25;;;;;;;;;21.25;21.25;;;;;30.25;34.92;101497.34;5035982;28;45314;-49
2023/06/01 07:04:51;;;;;;;;;25.25;23.25;;;;;30.92;34.88;101507.00;5035752;28;45385;-46
2023/06/01 07:07:17;;;;;;;;;31.50;24.75;;;;;31.37;33.73;101503.72;5034246;28;46249;-47
2023/06/01 07:09:42;;;;;;;;;34.25;25.00;;;;;31.83;32.66;101514.91;5035727;28;45182;-45
2023/06/01 07:12:08;;;;;;;;;31.75;25.00;;;;;32.28;31.75;101505.13;5035656;28;45893;-48
2023/06/01 07:14:33;;;;;;;;;24.75;20.50;;;;;32.64;30.65;101510.66;5035952;28;45305;-49
2023/06/01 07:16:59;;;;;;;;;23.00;20.75;;;;;32.97;30.15;101501.03;5035592;28;45505;-49
2023/06/01 07:19:24;;;;;;;;;22.50;19.25;;;;;33.33;30.53;101504.50;5035385;28;45534;-43
2023/06/01 07:21:49;;;;;;;;;25.75;24.50;;;;;33.77;29.66;101509.31;5035651;28;45325;-47
2023/06/01 07:24:19;;;;;;;;;26.00;19.50;;;;;34.04;29.79;101508.09;5035805;28;45370;-45
2023/06/01 07:26:44;;;;;;;;;24.20;20.40;;;;;34.19;28.73;101505.22;5037045;28;46473;-43
2023/06/01 07:29:09;;;;;;;;;22.75;18.50;;;;;34.42;28.68;101512.75;5038701;28;45215;-46
2023/06/01 07:31:35;;;;;;;;;18.50;16.50;;;;;34.67;27.74;101511.75;5039300;28;45226;-46
2023/06/01 07:34:00;;;;;;;;;26.00;21.25;;;;;34.97;27.66;101516.19;5039243;28;45321;-45
2023/06/01 07:36:26;;;;;;;;;20.00;18.00;;;;;35.29;27.35;101520.28;5038863;28;46438;-49
2023/06/01 07:38:51;;;;;;;;;30.75;19.25;;;;;35.57;26.55;101523.31;5039086;28;45452;-48
2023/06/01 07:41:17;;;;;;;;;23.50;21.75;;;;;35.79;26.91;101522.75;5038823;28;45691;-45
2023/06/01 07:43:42;;;;;;;;;22.75;20.75;;;;;36.00;26.57;101515.00;5039237;28;45436;-45
2023/06/01 07:46:08;;;;;;;;;27.00;21.00;;;;;36.22;25.99;101516.03;5038560;28;46486;-47
2023/06/01 07:48:36;;;;;;;;;21.25;20.00;;;;;36.56;25.59;101528.00;5038730;28;45294;-46
2023/06/01 07:51:02;;;;;;;;;26.00;20.20;;;;;36.92;25.02;101528.19;5038702;28;45445;-48
2023/06/01 07:53:28;;;;;;;;;19.00;15.20;;;;;37.14;25.23;101524.75;5038877;28;45433;-46
2023/06/01 07:55:54;;;;;;;;;25.00;23.25;;;;;37.28;24.68;101536.66;5038760;28;45442;-42
2023/06/01 07:58:19;;;;;;;;;26.00;22.25;;;;;37.45;24.35;101539.66;5038441;28;45483;-47
2023/06/01 08:00:44;;;;;;;;;16.50;14.50;;;;;37.66;24.07;101542.84;5038729;28;45857;-46
2023/06/01 08:03:10;;;;;;;;;18.50;17.25;;;;;37.83;23.71;101539.41;5037649;28;45421;-48
2023/06/01 08:05:36;;;;;;;;;31.25;29.00;;;;;38.02;23.38;101539.31;5038437;28;46901;-45
2023/06/01 08:08:02;;;;;;;;;38.25;30.00;;;;;38.14;23.73;101536.00;5038417;28;45254;-47
2023/06/01 08:10:27;;;;;;;;;23.80;19.60;;;;;38.23;23.92;101539.66;5038420;28;45335;-48
2023/06/01 08:12:55;;;;;;;;;23.50;20.00;;;;;38.46;23.52;101536.91;5038691;28;45353;-50
2023/06/01 08:15:23;;;;;;;;;18.80;17.40;;;;;38.61;23.55;101536.53;5038086;28;46676;-48
2023/06/01 08:17:48;;;;;;;;;20.80;18.00;;;;;38.69;23.06;101517.13;5038339;28;45430;-48
2023/06/01 08:20:15;;;;;;;;;45.00;35.25;;;;;38.93;22.96;101522.31;5038508;28;45227;-47
2023/06/01 08:22:41;;;;;;;;;27.80;23.60;;;;;39.17;22.76;101526.69;5038600;28;45793;-46
2023/06/01 08:25:07;;;;;;;;;19.00;16.00;;;;;39.40;22.65;101533.00;5037958;28;46124;-46
2023/06/01 08:27:32;;;;;;;;;18.50;17.25;;;;;39.44;22.31;101534.00;5038181;28;45315;-52
2023/06/01 08:29:58;;;;;;;;;16.25;14.50;;;;;39.46;22.60;101528.13;5038187;28;45574;-47
2023/06/01 08:32:23;;;;;;;;;15.00;13.50;;;;;39.57;22.04;101521.09;5020456;28;45275;-45
2023/06/01 08:34:49;;;;;;;;;20.00;17.50;;;;;39.60;22.02;101512.09;5038124;28;45943;-47
2023/06/01 08:37:14;;;;;;;;;20.40;15.20;;;;;39.90;21.86;101527.09;5037632;28;45244;-45
2023/06/01 08:39:40;;;;;;;;;20.50;18.50;;;;;40.01;21.65;101530.38;5037810;28;45452;-50
2023/06/01 08:42:13;;;;;;;;;21.75;17.00;;;;;40.12;21.67;101531.72;5037975;28;45416;-47
2023/06/01 08:44:40;;;;;;;;;17.20;13.20;;;;;40.33;21.19;101529.91;5037641;28;45412;-45
2023/06/01 08:47:06;;;;;;;;;15.00;12.60;;;;;40.44;21.19;101523.97;5038052;28;45288;-49
2023/06/01 08:49:33;;;;;;;;;18.80;16.00;;;;;40.58;20.98;101522.69;5037936;28;45412;-47
2023/06/01 08:52:11;;;;;;;;;18.60;15.40;;;;;40.69;21.38;101525.09;5038106;28;45307;-45
2023/06/01 08:54:37;;;;;;;;;14.40;12.80;;;;;40.93;20.49;101525.38;5037701;28;45491;-46
2023/06/01 08:57:07;;;;;;;;;17.60;16.40;;;;;40.95;21.13;101527.81;5037616;28;45230;-47
2023/06/01 08:59:34;;;;;;;;;13.80;13.80;;;;;41.08;20.96;101515.63;5037631;28;45454;-46
2023/06/01 09:01:59;;;;;;;;;16.00;14.20;;;;;41.24;20.47;101513.09;5037993;28;45412;-47
2023/06/01 09:04:26;;;;;;;;;15.75;12.75;;;;;41.36;20.51;101516.81;5037520;28;46237;-50
2023/06/01 09:06:52;;;;;;;;;14.60;14.00;;;;;41.57;20.03;101518.84;5037882;28;45360;-48
2023/06/01 09:09:17;;;;;;;;;19.00;17.75;;;;;41.43;19.77;101493.16;5037626;28;45377;-44
2023/06/01 09:11:44;;;;;;;;;19.25;16.75;;;;;41.50;19.95;101513.78;5037617;28;45300;-45
2023/06/01 09:14:23;;;;;;;;;15.40;15.40;;;;;41.58;20.83;101520.47;5037248;28;46278;-44
2023/06/01 09:16:50;;;;;;;;;15.60;15.60;;;;;41.60;20.58;101501.44;5037436;28;45349;-44
2023/06/01 09:19:15;;;;;;;;;14.80;14.80;;;;;41.67;19.52;101514.84;5037441;28;45789;-43
2023/06/01 09:21:57;;;;;;;;;12.00;12.00;;;;;41.71;19.71;101511.00;5037521;28;45250;-48
2023/06/01 09:24:23;;;;;;;;;13.40;13.40;;;;;41.77;19.43;101506.06;5037374;28;45400;-44
2023/06/01 09:26:49;;;;;;;;;14.25;10.50;;;;;41.68;19.85;101505.28;5037210;28;45431;-44
2023/06/01 09:29:15;;;;;;;;;14.40;13.00;;;;;41.58;19.45;101503.72;5037285;28;45322;-46
2023/06/01 09:31:45;;;;;;;;;16.00;13.75;;;;;41.55;20.05;101499.66;5037301;28;45423;-46
2023/06/01 09:34:19;;;;;;;;;13.00;12.60;;;;;41.57;20.59;101493.72;5036864;28;46348;-45
2023/06/01 09:36:49;;;;;;;;;15.00;13.60;;;;;41.48;20.88;101495.75;5037088;28;45381;-45
2023/06/01 09:39:16;;;;;;;;;12.20;12.20;;;;;41.32;20.36;101499.09;5037134;28;45306;-45
2023/06/01 09:41:45;;;;;;;;;15.40;12.60;;;;;41.18;20.89;101492.94;5036929;28;45337;-47
2023/06/01 09:44:11;;;;;;;;;19.20;13.80;;;;;40.96;20.23;101498.75;5036879;28;45266;-47
2023/06/01 09:46:50;;;;;;;;;12.40;11.60;;;;;40.49;21.01;101488.38;5037127;28;45403;-48
2023/06/01 09:49:27;;;;;;;;;12.60;12.00;;;;;40.32;21.20;101489.22;5035995;28;45695;-48
2023/06/01 09:52:05;;;;;;;;;11.00;10.60;;;;;40.03;21.34;101484.31;5037207;28;45475;-49
2023/06/01 09:54:34;;;;;;;;;12.40;11.40;;;;;39.78;21.92;101485.97;5036606;28;47078;-46
2023/06/01 09:57:01;;;;;;;;;11.80;9.80;;;;;39.61;21.94;101486.75;5036623;28;45496;-52
2023/06/01 09:59:30;;;;;;;;;16.80;12.80;;;;;39.38;22.35;101488.81;5036803;28;45373;-45
2023/06/01 10:01:57;;;;;;;;;17.60;15.20;;;;;39.13;22.08;101486.75;5037254;28;45556;-45
2023/06/01 10:04:26;;;;;;;;;15.80;13.20;;;;;38.92;22.52;101484.53;5036760;28;45424;-45
2023/06/01 10:06:53;;;;;;;;;9.20;9.20;;;;;38.80;22.99;101473.19;5036384;28;45342;-46
2023/06/01 10:09:21;;;;;;;;;14.80;11.20;;;;;38.75;22.91;101478.84;5036537;28;45453;-45
2023/06/01 10:11:49;;;;;;;;;15.40;13.60;;;;;38.61;22.88;101467.03;5036551;28;45561;-52
2023/06/01 10:14:17;;;;;;;;;12.00;11.60;;;;;38.57;23.28;101472.41;5036369;28;46620;-45
2023/06/01 10:16:43;;;;;;;;;13.20;11.80;;;;;38.41;22.62;101477.53;5036349;28;45366;-46
2023/06/01 10:19:10;;;;;;;;;12.50;12.00;;;;;38.27;23.11;101473.97;5035505;28;45203;-45
2023/06/01 10:21:36;;;;;;;;;14.40;12.40;;;;;38.09;23.50;101470.22;5036852;28;45355;-46
2023/06/01 10:24:03;;;;;;;;;14.40;11.20;;;;;37.82;23.24;101476.69;5036285;28;46389;-45
2023/06/01 10:26:30;;;;;;;;;11.80;11.80;;;;;37.45;23.67;101469.47;5036264;28;45338;-45
2023/06/01 10:28:57;;;;;;;;;14.20;12.00;;;;;37.16;24.31;101472.53;5036145;28;45382;-46
2023/06/01 10:31:40;;;;;;;;;10.40;10.20;;;;;36.80;23.85;101459.38;5036666;28;45513;-45
2023/06/01 10:34:08;;;;;;;;;11.20;11.20;;;;;36.69;24.23;101467.03;5036118;28;46200;-46
2023/06/01 10:36:52;;;;;;;;;13.00;13.00;;;;;36.44;24.78;101473.00;5036288;28;45302;-45
2023/06/01 10:39:30;;;;;;;;;13.60;13.60;;;;;36.12;25.40;101462.75;5035748;28;45298;-44
2023/06/01 10:41:57;;;;;;;;;17.40;15.00;;;;;35.96;25.41;101462.13;5036369;28;45381;-47
2023/06/01 10:44:41;;;;;;;;;11.80;10.20;;;;;35.85;25.08;101461.44;5035970;28;45421;-44
2023/06/01 10:47:12;;;;;;;;;17.20;15.60;;;;;35.74;25.40;101452.50;5036069;28;45336;-51
2023/06/01 10:49:46;;;;;;;;;13.80;13.80;;;;;35.62;25.63;101454.88;5036111;28;45272;-49
2023/06/01 10:52:40;;;;;;;;;15.20;14.20;;;;;35.49;25.65;101444.56;5035535;28;45381;-44
2023/06/01 10:55:13;;;;;;;;;15.00;14.20;;;;;35.34;25.38;101453.81;5034102;28;46706;-49
2023/06/01 10:57:44;;;;;;;;;12.60;12.00;;;;;34.97;25.80;101458.13;5035557;28;45337;-50
2023/06/01 11:00:15;;;;;;;;;15.20;13.80;;;;;34.55;27.03;101458.00;5035342;28;45458;-47
2023/06/01 11:03:03;;;;;;;;;9.60;8.00;;;;;34.07;27.17;101449.53;5036093;28;45380;-48
2023/06/01 11:05:46;;;;;;;;;15.00;12.60;;;;;33.61;27.77;101449.81;5035651;28;45410;-46
2023/06/01 11:08:29;;;;;;;;;13.40;13.40;;;;;33.17;28.53;101458.81;5035566;28;45445;-45
2023/06/01 11:11:06;;;;;;;;;13.00;12.20;;;;;32.81;28.42;101456.09;5035819;28;45340;-48
2023/06/01 11:13:37;;;;;;;;;15.80;14.00;;;;;32.46;28.83;101456.97;5035796;28;45424;-48